sensor_id;sensor_type;location;lat;lon;timestamp;P1;durP1;ratioP1;P2;durP2;ratioP2
29378;SDS011;16362;47.202;15.258;2023-07-02T12:44:54;2.78;;;2.63;;
29378;SDS011;16362;47.202;15.258;2023-07-02T12:47:37;1.60;;;1.50;;
29378;SDS011;16362;47.202;15.258;2023-07-02T12:50:08;2.10;;;1.75;;
29378;SDS011;16362;47.202;15.258;2023-07-02T12:52:36;1.52;;;1.52;;
29378;SDS011;16362;47.202;15.258;2023-07-02T12:55:38;2.08;;;2.00;;
29378;SDS011;16362;47.202;15.258;2023-07-02T12:58:41;1.80;;;1.80;;
29378;SDS011;16362;47.202;15.258;2023-07-02T13:01:22;1.88;;;1.77;;
29378;SDS011;16362;47.202;15.258;2023-07-02T13:03:51;1.70;;;1.60;;
29378;SDS011;16362;47.202;15.258;2023-07-02T13:06:20;1.42;;;1.40;;
29378;SDS011;16362;47.202;15.258;2023-07-02T13:08:51;1.40;;;1.40;;
29378;SDS011;16362;47.202;15.258;2023-07-02T13:11:23;1.50;;;1.50;;
29378;SDS011;16362;47.202;15.258;2023-07-02T13:13:50;1.60;;;1.60;;
29378;SDS011;16362;47.202;15.258;2023-07-02T13:19:08;1.67;;;1.58;;
29378;SDS011;16362;47.202;15.258;2023-07-02T13:21:41;1.90;;;1.80;;
29378;SDS011;16362;47.202;15.258;2023-07-02T13:24:14;1.50;;;1.50;;
29378;SDS011;16362;47.202;15.258;2023-07-02T13:26:51;1.65;;;1.65;;
29378;SDS011;16362;47.202;15.258;2023-07-02T13:29:23;1.75;;;1.75;;
29378;SDS011;16362;47.202;15.258;2023-07-02T13:31:57;1.65;;;1.65;;
29378;SDS011;16362;47.202;15.258;2023-07-02T13:34:31;1.60;;;1.60;;
29378;SDS011;16362;47.202;15.258;2023-07-02T13:37:00;1.58;;;1.55;;
29378;SDS011;16362;47.202;15.258;2023-07-02T13:39:29;1.95;;;1.75;;
29378;SDS011;16362;47.202;15.258;2023-07-02T13:42:02;1.25;;;1.25;;
29378;SDS011;16362;47.202;15.258;2023-07-02T13:44:30;2.60;;;1.40;;
29378;SDS011;16362;47.202;15.258;2023-07-02T13:47:03;1.48;;;1.48;;
29378;SDS011;16362;47.202;15.258;2023-07-02T13:49:33;1.67;;;1.58;;
29378;SDS011;16362;47.202;15.258;2023-07-02T13:52:04;1.77;;;1.77;;
29378;SDS011;16362;47.202;15.258;2023-07-02T13:54:36;1.30;;;1.30;;
29378;SDS011;16362;47.202;15.258;2023-07-02T13:57:04;2.15;;;1.40;;
29378;SDS011;16362;47.202;15.258;2023-07-02T13:59:33;2.47;;;1.73;;
29378;SDS011;16362;47.202;15.258;2023-07-02T14:02:08;8.50;;;1.70;;
29378;SDS011;16362;47.202;15.258;2023-07-02T14:04:35;1.30;;;1.30;;
29378;SDS011;16362;47.202;15.258;2023-07-02T14:07:15;1.60;;;1.60;;
29378;SDS011;16362;47.202;15.258;2023-07-02T14:09:43;1.60;;;1.50;;
29378;SDS011;16362;47.202;15.258;2023-07-02T14:12:10;1.58;;;1.48;;
29378;SDS011;16362;47.202;15.258;2023-07-02T14:14:40;1.60;;;1.40;;
29378;SDS011;16362;47.202;15.258;2023-07-02T14:17:09;1.52;;;1.52;;
29378;SDS011;16362;47.202;15.258;2023-07-02T14:19:37;1.65;;;1.55;;
29378;SDS011;16362;47.202;15.258;2023-07-02T14:25:01;4.13;;;1.60;;
29378;SDS011;16362;47.202;15.258;2023-07-02T14:27:29;2.70;;;1.60;;
29378;SDS011;16362;47.202;15.258;2023-07-02T14:29:57;1.58;;;1.58;;
29378;SDS011;16362;47.202;15.258;2023-07-02T14:32:27;2.10;;;2.00;;
29378;SDS011;16362;47.202;15.258;2023-07-02T14:35:00;1.80;;;1.70;;
29378;SDS011;16362;47.202;15.258;2023-07-02T14:37:33;2.00;;;1.90;;
29378;SDS011;16362;47.202;15.258;2023-07-02T14:40:03;1.83;;;1.73;;
29378;SDS011;16362;47.202;15.258;2023-07-02T14:42:32;1.90;;;1.90;;
29378;SDS011;16362;47.202;15.258;2023-07-02T14:45:00;3.80;;;2.10;;
29378;SDS011;16362;47.202;15.258;2023-07-02T14:47:27;3.60;;;1.85;;
29378;SDS011;16362;47.202;15.258;2023-07-02T14:49:55;3.28;;;1.80;;
29378;SDS011;16362;47.202;15.258;2023-07-02T14:52:22;2.13;;;2.03;;
29378;SDS011;16362;47.202;15.258;2023-07-02T14:54:49;2.50;;;1.83;;
29378;SDS011;16362;47.202;15.258;2023-07-02T14:57:15;1.85;;;1.75;;
29378;SDS011;16362;47.202;15.258;2023-07-02T14:59:43;2.08;;;1.88;;
29378;SDS011;16362;47.202;15.258;2023-07-02T15:02:10;2.80;;;1.88;;
29378;SDS011;16362;47.202;15.258;2023-07-02T15:04:39;5.05;;;2.67;;
29378;SDS011;16362;47.202;15.258;2023-07-02T15:07:06;4.78;;;2.30;;
29378;SDS011;16362;47.202;15.258;2023-07-02T15:09:33;2.35;;;2.25;;
29378;SDS011;16362;47.202;15.258;2023-07-02T15:12:00;2.20;;;2.10;;
29378;SDS011;16362;47.202;15.258;2023-07-02T15:14:28;2.20;;;2.10;;
29378;SDS011;16362;47.202;15.258;2023-07-02T15:16:55;2.58;;;2.47;;
29378;SDS011;16362;47.202;15.258;2023-07-02T15:19:22;3.00;;;2.55;;
29378;SDS011;16362;47.202;15.258;2023-07-02T15:21:51;2.30;;;2.20;;
29378;SDS011;16362;47.202;15.258;2023-07-02T15:24:18;2.70;;;2.47;;
29378;SDS011;16362;47.202;15.258;2023-07-02T15:26:45;3.72;;;2.67;;
29378;SDS011;16362;47.202;15.258;2023-07-02T15:29:14;2.13;;;2.13;;
29378;SDS011;16362;47.202;15.258;2023-07-02T15:31:41;2.50;;;2.40;;
29378;SDS011;16362;47.202;15.258;2023-07-02T15:34:12;4.20;;;3.10;;
29378;SDS011;16362;47.202;15.258;2023-07-02T15:36:46;3.20;;;2.30;;
29378;SDS011;16362;47.202;15.258;2023-07-02T15:39:14;2.40;;;2.30;;
29378;SDS011;16362;47.202;15.258;2023-07-02T15:41:49;5.53;;;2.43;;
29378;SDS011;16362;47.202;15.258;2023-07-02T15:44:25;3.22;;;2.78;;
29378;SDS011;16362;47.202;15.258;2023-07-02T15:46:57;2.80;;;2.63;;
29378;SDS011;16362;47.202;15.258;2023-07-02T15:49:25;2.65;;;2.45;;
29378;SDS011;16362;47.202;15.258;2023-07-02T15:51:52;4.22;;;2.30;;
29378;SDS011;16362;47.202;15.258;2023-07-02T15:54:20;2.67;;;2.47;;
29378;SDS011;16362;47.202;15.258;2023-07-02T15:56:47;2.90;;;2.80;;
29378;SDS011;16362;47.202;15.258;2023-07-02T15:59:16;4.03;;;2.40;;
29378;SDS011;16362;47.202;15.258;2023-07-02T16:01:44;2.92;;;2.72;;
29378;SDS011;16362;47.202;15.258;2023-07-02T16:04:13;2.50;;;2.38;;
29378;SDS011;16362;47.202;15.258;2023-07-02T16:06:41;3.05;;;2.28;;
29378;SDS011;16362;47.202;15.258;2023-07-02T16:09:08;2.50;;;2.40;;
29378;SDS011;16362;47.202;15.258;2023-07-02T16:11:36;2.95;;;2.75;;
29378;SDS011;16362;47.202;15.258;2023-07-02T16:14:11;2.85;;;2.65;;
29378;SDS011;16362;47.202;15.258;2023-07-02T16:16:41;2.97;;;2.30;;
29378;SDS011;16362;47.202;15.258;2023-07-02T16:19:11;6.78;;;2.60;;
29378;SDS011;16362;47.202;15.258;2023-07-02T16:21:40;7.38;;;2.25;;
29378;SDS011;16362;47.202;15.258;2023-07-02T16:24:22;3.42;;;2.58;;
29378;SDS011;16362;47.202;15.258;2023-07-02T16:27:05;2.45;;;2.35;;
29378;SDS011;16362;47.202;15.258;2023-07-02T16:29:36;2.65;;;2.55;;
29378;SDS011;16362;47.202;15.258;2023-07-02T16:32:10;3.35;;;3.00;;
29378;SDS011;16362;47.202;15.258;2023-07-02T16:34:40;3.10;;;2.90;;
29378;SDS011;16362;47.202;15.258;2023-07-02T16:37:07;3.05;;;2.70;;
29378;SDS011;16362;47.202;15.258;2023-07-02T16:39:34;2.95;;;2.60;;
29378;SDS011;16362;47.202;15.258;2023-07-02T16:42:01;3.63;;;2.90;;
29378;SDS011;16362;47.202;15.258;2023-07-02T16:44:27;5.15;;;2.88;;
29378;SDS011;16362;47.202;15.258;2023-07-02T16:46:57;4.97;;;3.13;;
29378;SDS011;16362;47.202;15.258;2023-07-02T16:49:26;4.03;;;3.10;;
29378;SDS011;16362;47.202;15.258;2023-07-02T16:51:54;16.50;;;2.97;;
29378;SDS011;16362;47.202;15.258;2023-07-02T16:54:22;5.57;;;3.22;;
29378;SDS011;16362;47.202;15.258;2023-07-02T16:56:51;4.78;;;3.10;;
29378;SDS011;16362;47.202;15.258;2023-07-02T16:59:21;2.83;;;2.72;;
29378;SDS011;16362;47.202;15.258;2023-07-02T17:01:50;5.93;;;3.13;;
29378;SDS011;16362;47.202;15.258;2023-07-02T17:04:21;4.88;;;2.80;;
29378;SDS011;16362;47.202;15.258;2023-07-02T17:06:52;3.00;;;2.90;;
29378;SDS011;16362;47.202;15.258;2023-07-02T17:09:22;4.72;;;2.40;;
29378;SDS011;16362;47.202;15.258;2023-07-02T17:12:05;11.65;;;2.50;;
29378;SDS011;16362;47.202;15.258;2023-07-02T17:14:37;10.32;;;2.20;;
29378;SDS011;16362;47.202;15.258;2023-07-02T17:17:08;3.13;;;1.90;;
29378;SDS011;16362;47.202;15.258;2023-07-02T17:19:43;3.80;;;1.50;;
29378;SDS011;16362;47.202;15.258;2023-07-02T17:22:19;5.30;;;1.77;;
29378;SDS011;16362;47.202;15.258;2023-07-02T17:24:48;1.98;;;1.88;;
29378;SDS011;16362;47.202;15.258;2023-07-02T17:27:19;10.80;;;2.03;;
29378;SDS011;16362;47.202;15.258;2023-07-02T17:29:51;2.20;;;1.60;;
29378;SDS011;16362;47.202;15.258;2023-07-02T17:32:19;4.32;;;1.90;;
29378;SDS011;16362;47.202;15.258;2023-07-02T17:34:46;4.32;;;2.03;;
29378;SDS011;16362;47.202;15.258;2023-07-02T17:37:18;3.53;;;1.77;;
29378;SDS011;16362;47.202;15.258;2023-07-02T17:39:47;1.90;;;1.60;;
29378;SDS011;16362;47.202;15.258;2023-07-02T17:42:16;5.93;;;1.80;;
29378;SDS011;16362;47.202;15.258;2023-07-02T17:44:48;1.52;;;1.52;;
29378;SDS011;16362;47.202;15.258;2023-07-02T17:47:16;1.50;;;1.40;;
29378;SDS011;16362;47.202;15.258;2023-07-02T17:49:45;12.40;;;1.80;;
29378;SDS011;16362;47.202;15.258;2023-07-02T17:52:17;4.50;;;1.48;;
29378;SDS011;16362;47.202;15.258;2023-07-02T17:54:48;3.63;;;1.70;;
29378;SDS011;16362;47.202;15.258;2023-07-02T17:57:17;5.45;;;1.83;;
29378;SDS011;16362;47.202;15.258;2023-07-02T17:59:45;1.73;;;1.60;;
29378;SDS011;16362;47.202;15.258;2023-07-02T18:02:22;2.35;;;1.80;;
29378;SDS011;16362;47.202;15.258;2023-07-02T18:04:50;2.47;;;1.88;;
29378;SDS011;16362;47.202;15.258;2023-07-02T18:07:22;3.45;;;1.55;;
29378;SDS011;16362;47.202;15.258;2023-07-02T18:09:49;8.38;;;1.52;;
29378;SDS011;16362;47.202;15.258;2023-07-02T18:12:20;6.13;;;2.00;;
29378;SDS011;16362;47.202;15.258;2023-07-02T18:14:53;2.35;;;1.88;;
29378;SDS011;16362;47.202;15.258;2023-07-02T18:17:21;2.08;;;1.80;;
29378;SDS011;16362;47.202;15.258;2023-07-02T18:19:48;3.65;;;1.60;;
29378;SDS011;16362;47.202;15.258;2023-07-02T18:22:15;2.88;;;1.75;;
29378;SDS011;16362;47.202;15.258;2023-07-02T18:24:43;1.75;;;1.65;;
29378;SDS011;16362;47.202;15.258;2023-07-02T18:27:10;2.60;;;1.88;;
29378;SDS011;16362;47.202;15.258;2023-07-02T18:29:38;1.60;;;1.50;;
29378;SDS011;16362;47.202;15.258;2023-07-02T18:32:05;9.90;;;2.00;;
29378;SDS011;16362;47.202;15.258;2023-07-02T18:34:34;3.35;;;1.88;;
29378;SDS011;16362;47.202;15.258;2023-07-02T18:37:02;4.57;;;1.90;;
29378;SDS011;16362;47.202;15.258;2023-07-02T18:39:32;7.70;;;2.50;;
29378;SDS011;16362;47.202;15.258;2023-07-02T18:42:01;3.10;;;1.98;;
29378;SDS011;16362;47.202;15.258;2023-07-02T18:44:29;3.25;;;2.28;;
29378;SDS011;16362;47.202;15.258;2023-07-02T18:47:04;4.47;;;2.13;;
29378;SDS011;16362;47.202;15.258;2023-07-02T18:49:35;8.98;;;2.08;;
29378;SDS011;16362;47.202;15.258;2023-07-02T18:52:04;3.35;;;2.30;;
29378;SDS011;16362;47.202;15.258;2023-07-02T18:54:33;2.63;;;2.25;;
29378;SDS011;16362;47.202;15.258;2023-07-02T18:57:07;2.40;;;1.98;;
29378;SDS011;16362;47.202;15.258;2023-07-02T18:59:36;8.65;;;2.63;;
29378;SDS011;16362;47.202;15.258;2023-07-02T19:02:05;6.85;;;2.13;;
29378;SDS011;16362;47.202;15.258;2023-07-02T19:04:33;2.35;;;2.15;;
29378;SDS011;16362;47.202;15.258;2023-07-02T19:07:03;2.42;;;2.28;;
29378;SDS011;16362;47.202;15.258;2023-07-02T19:09:37;2.55;;;2.40;;
29378;SDS011;16362;47.202;15.258;2023-07-02T19:12:05;3.97;;;3.55;;
29378;SDS011;16362;47.202;15.258;2023-07-02T19:14:36;7.75;;;2.28;;
29378;SDS011;16362;47.202;15.258;2023-07-02T19:17:05;2.92;;;2.53;;
29378;SDS011;16362;47.202;15.258;2023-07-02T19:19:41;3.88;;;2.22;;
29378;SDS011;16362;47.202;15.258;2023-07-02T19:22:14;2.50;;;2.30;;
29378;SDS011;16362;47.202;15.258;2023-07-02T19:24:43;4.50;;;2.88;;
29378;SDS011;16362;47.202;15.258;2023-07-02T19:27:15;4.47;;;2.55;;
29378;SDS011;16362;47.202;15.258;2023-07-02T19:29:42;3.70;;;2.00;;
29378;SDS011;16362;47.202;15.258;2023-07-02T19:32:13;2.55;;;2.22;;
29378;SDS011;16362;47.202;15.258;2023-07-02T19:34:47;4.15;;;2.47;;
29378;SDS011;16362;47.202;15.258;2023-07-02T19:37:16;2.60;;;2.40;;
29378;SDS011;16362;47.202;15.258;2023-07-02T19:39:43;3.78;;;2.60;;
29378;SDS011;16362;47.202;15.258;2023-07-02T19:42:11;6.28;;;2.67;;
29378;SDS011;16362;47.202;15.258;2023-07-02T19:44:44;8.63;;;2.45;;
29378;SDS011;16362;47.202;15.258;2023-07-02T19:47:11;2.92;;;2.72;;
29378;SDS011;16362;47.202;15.258;2023-07-02T19:49:41;2.60;;;2.40;;
29378;SDS011;16362;47.202;15.258;2023-07-02T19:52:17;12.43;;;3.03;;
29378;SDS011;16362;47.202;15.258;2023-07-02T19:54:44;3.63;;;2.47;;
29378;SDS011;16362;47.202;15.258;2023-07-02T19:57:13;2.65;;;2.45;;
29378;SDS011;16362;47.202;15.258;2023-07-02T19:59:47;6.30;;;2.80;;
29378;SDS011;16362;47.202;15.258;2023-07-02T20:02:17;5.68;;;3.30;;
29378;SDS011;16362;47.202;15.258;2023-07-02T20:04:46;3.50;;;2.42;;
29378;SDS011;16362;47.202;15.258;2023-07-02T20:07:14;5.57;;;2.90;;
29378;SDS011;16362;47.202;15.258;2023-07-02T20:09:43;4.35;;;3.42;;
29378;SDS011;16362;47.202;15.258;2023-07-02T20:12:11;3.85;;;2.60;;
29378;SDS011;16362;47.202;15.258;2023-07-02T20:14:39;6.13;;;2.83;;
29378;SDS011;16362;47.202;15.258;2023-07-02T20:17:08;3.30;;;3.00;;
29378;SDS011;16362;47.202;15.258;2023-07-02T20:19:36;10.23;;;2.85;;
29378;SDS011;16362;47.202;15.258;2023-07-02T20:22:04;3.05;;;2.85;;
29378;SDS011;16362;47.202;15.258;2023-07-02T20:24:34;3.28;;;2.97;;
29378;SDS011;16362;47.202;15.258;2023-07-02T20:27:02;3.42;;;2.88;;
29378;SDS011;16362;47.202;15.258;2023-07-02T20:29:29;3.13;;;2.83;;
29378;SDS011;16362;47.202;15.258;2023-07-02T20:31:57;2.92;;;2.80;;
29378;SDS011;16362;47.202;15.258;2023-07-02T20:34:25;8.70;;;3.10;;
29378;SDS011;16362;47.202;15.258;2023-07-02T20:36:52;3.53;;;3.22;;
29378;SDS011;16362;47.202;15.258;2023-07-02T20:39:20;4.55;;;2.65;;
29378;SDS011;16362;47.202;15.258;2023-07-02T20:41:51;5.30;;;2.70;;
29378;SDS011;16362;47.202;15.258;2023-07-02T20:44:21;4.85;;;2.80;;
29378;SDS011;16362;47.202;15.258;2023-07-02T20:46:49;2.65;;;2.55;;
29378;SDS011;16362;47.202;15.258;2023-07-02T20:49:18;4.10;;;3.40;;
29378;SDS011;16362;47.202;15.258;2023-07-02T20:51:47;6.32;;;3.20;;
29378;SDS011;16362;47.202;15.258;2023-07-02T20:54:19;5.13;;;2.80;;
29378;SDS011;16362;47.202;15.258;2023-07-02T20:56:48;2.88;;;2.78;;
29378;SDS011;16362;47.202;15.258;2023-07-02T20:59:20;5.25;;;3.05;;
29378;SDS011;16362;47.202;15.258;2023-07-02T21:01:49;4.90;;;3.38;;
29378;SDS011;16362;47.202;15.258;2023-07-02T21:04:15;6.95;;;3.35;;
29378;SDS011;16362;47.202;15.258;2023-07-02T21:06:43;4.10;;;3.25;;
29378;SDS011;16362;47.202;15.258;2023-07-02T21:09:11;3.35;;;3.05;;
29378;SDS011;16362;47.202;15.258;2023-07-02T21:11:39;3.05;;;2.90;;
29378;SDS011;16362;47.202;15.258;2023-07-02T21:14:06;5.85;;;3.17;;
29378;SDS011;16362;47.202;15.258;2023-07-02T21:16:34;6.53;;;2.72;;
29378;SDS011;16362;47.202;15.258;2023-07-02T21:19:06;5.90;;;3.22;;
29378;SDS011;16362;47.202;15.258;2023-07-02T21:21:35;2.90;;;2.70;;
29378;SDS011;16362;47.202;15.258;2023-07-02T21:24:02;5.10;;;3.05;;
29378;SDS011;16362;47.202;15.258;2023-07-02T21:26:29;3.15;;;2.95;;
29378;SDS011;16362;47.202;15.258;2023-07-02T21:28:55;5.00;;;2.90;;
29378;SDS011;16362;47.202;15.258;2023-07-02T21:31:23;5.00;;;3.05;;
29378;SDS011;16362;47.202;15.258;2023-07-02T21:33:50;2.97;;;2.78;;
29378;SDS011;16362;47.202;15.258;2023-07-02T21:36:18;4.00;;;3.40;;
29378;SDS011;16362;47.202;15.258;2023-07-02T21:38:47;5.53;;;3.65;;
29378;SDS011;16362;47.202;15.258;2023-07-02T21:41:17;5.53;;;3.08;;
29378;SDS011;16362;47.202;15.258;2023-07-02T21:43:44;3.65;;;3.33;;
29378;SDS011;16362;47.202;15.258;2023-07-02T21:46:11;4.60;;;3.35;;
29378;SDS011;16362;47.202;15.258;2023-07-02T21:48:39;3.60;;;3.17;;
29378;SDS011;16362;47.202;15.258;2023-07-02T21:51:06;5.30;;;2.90;;
29378;SDS011;16362;47.202;15.258;2023-07-02T21:53:32;3.92;;;2.60;;
29378;SDS011;16362;47.202;15.258;2023-07-02T21:55:59;10.88;;;3.13;;
29378;SDS011;16362;47.202;15.258;2023-07-02T21:58:26;4.10;;;3.13;;
29378;SDS011;16362;47.202;15.258;2023-07-02T22:00:53;5.72;;;3.15;;
29378;SDS011;16362;47.202;15.258;2023-07-02T22:03:20;5.70;;;3.33;;
29378;SDS011;16362;47.202;15.258;2023-07-02T22:05:50;10.98;;;3.50;;
29378;SDS011;16362;47.202;15.258;2023-07-02T22:08:19;4.03;;;3.28;;
29378;SDS011;16362;47.202;15.258;2023-07-02T22:10:46;5.03;;;3.30;;
29378;SDS011;16362;47.202;15.258;2023-07-02T22:13:14;3.35;;;3.05;;
29378;SDS011;16362;47.202;15.258;2023-07-02T22:15:43;3.75;;;3.45;;
29378;SDS011;16362;47.202;15.258;2023-07-02T22:18:15;6.97;;;3.35;;
29378;SDS011;16362;47.202;15.258;2023-07-02T22:20:44;3.78;;;3.17;;
29378;SDS011;16362;47.202;15.258;2023-07-02T22:23:13;3.45;;;2.90;;
29378;SDS011;16362;47.202;15.258;2023-07-02T22:25:43;3.58;;;3.28;;
29378;SDS011;16362;47.202;15.258;2023-07-02T22:28:13;3.58;;;3.15;;
29378;SDS011;16362;47.202;15.258;2023-07-02T22:30:40;3.17;;;2.97;;
29378;SDS011;16362;47.202;15.258;2023-07-02T22:33:07;3.63;;;3.20;;
29378;SDS011;16362;47.202;15.258;2023-07-02T22:35:34;3.45;;;3.25;;
29378;SDS011;16362;47.202;15.258;2023-07-02T22:38:01;3.50;;;3.20;;
29378;SDS011;16362;47.202;15.258;2023-07-02T22:40:29;3.38;;;3.08;;
29378;SDS011;16362;47.202;15.258;2023-07-02T22:42:56;7.22;;;3.28;;
29378;SDS011;16362;47.202;15.258;2023-07-02T22:45:23;3.20;;;2.92;;
29378;SDS011;16362;47.202;15.258;2023-07-02T22:47:52;7.00;;;3.25;;
29378;SDS011;16362;47.202;15.258;2023-07-02T22:50:19;6.35;;;3.00;;
29378;SDS011;16362;47.202;15.258;2023-07-02T22:52:48;6.53;;;3.10;;
29378;SDS011;16362;47.202;15.258;2023-07-02T22:55:16;3.55;;;3.25;;
29378;SDS011;16362;47.202;15.258;2023-07-02T22:57:47;3.08;;;2.90;;
29378;SDS011;16362;47.202;15.258;2023-07-02T23:00:19;8.40;;;3.22;;
29378;SDS011;16362;47.202;15.258;2023-07-02T23:02:52;3.53;;;3.25;;
29378;SDS011;16362;47.202;15.258;2023-07-02T23:05:22;3.60;;;3.40;;
29378;SDS011;16362;47.202;15.258;2023-07-02T23:07:49;4.78;;;3.30;;
29378;SDS011;16362;47.202;15.258;2023-07-02T23:10:16;3.38;;;3.17;;
29378;SDS011;16362;47.202;15.258;2023-07-02T23:12:44;3.55;;;3.30;;
29378;SDS011;16362;47.202;15.258;2023-07-02T23:15:15;4.57;;;3.35;;
29378;SDS011;16362;47.202;15.258;2023-07-02T23:17:46;3.45;;;3.15;;
29378;SDS011;16362;47.202;15.258;2023-07-02T23:20:14;3.33;;;3.13;;
29378;SDS011;16362;47.202;15.258;2023-07-02T23:22:46;3.47;;;3.28;;
29378;SDS011;16362;47.202;15.258;2023-07-02T23:25:15;5.15;;;3.30;;
29378;SDS011;16362;47.202;15.258;2023-07-02T23:27:47;4.47;;;3.47;;
29378;SDS011;16362;47.202;15.258;2023-07-02T23:30:16;3.47;;;3.28;;
29378;SDS011;16362;47.202;15.258;2023-07-02T23:32:44;5.97;;;3.22;;
29378;SDS011;16362;47.202;15.258;2023-07-02T23:35:13;3.92;;;3.33;;
29378;SDS011;16362;47.202;15.258;2023-07-02T23:37:42;4.47;;;3.15;;
29378;SDS011;16362;47.202;15.258;2023-07-02T23:40:12;3.13;;;3.00;;
29378;SDS011;16362;47.202;15.258;2023-07-02T23:42:43;3.55;;;3.17;;
29378;SDS011;16362;47.202;15.258;2023-07-02T23:45:12;4.75;;;3.25;;
29378;SDS011;16362;47.202;15.258;2023-07-02T23:47:47;3.80;;;3.50;;
29378;SDS011;16362;47.202;15.258;2023-07-02T23:50:17;3.53;;;3.22;;
29378;SDS011;16362;47.202;15.258;2023-07-02T23:52:52;5.63;;;3.45;;
29378;SDS011;16362;47.202;15.258;2023-07-02T23:55:20;3.70;;;3.50;;
29378;SDS011;16362;47.202;15.258;2023-07-02T23:57:49;6.20;;;3.30;;
